Amherst, Nova Scotia

5:33 AM ADT on May 25, 2015 (GMT -0300)
Amherst | | Change Station
CLOSE
Current Station
Personal Weather Station
Location: Amherst, NOVA SCOTIA
Elevation: 151 ft
Nearby Weather Stations

Elev 151 ft 45.82 °N, 64.19 °W | Updated 1 minute ago

Partly Cloudy
Partly Cloudy
46.4 °F
Feels Like 46 °F
N
1.1
Wind Variable Wind from SSW

Today is forecast to be nearly the same temperature as yesterday.

Today
High -- | Low -- °F
--% Chance of Precip.
Yesterday
High -- | Low -- °F
Precip. -- in
5:35 AM 8:52 PM
Waxing Crescent, 46% visible
Pressure 30.04 in
Visibility 15.0 miles
Clouds Few 9000 ft
Few 26000 ft
Windchill 46 °F
Dew Point 42 °F
Humidity 85%
Rainfall 0.00 in
Snow Depth Not available.
UV 0 out of 12
Pollen Not available.
Air Quality Not available.
Flu Activity Not available.
METAR CYQM 250800Z 18008KT 15SM FEW090 FEW260 07/06 A3004 RMK AC1CI1 SLP173

More Conditions Fewer Conditions

Pressure 30.04 in
Visibility 15.0 miles
Clouds Few 9000 ft
Few 26000 ft
Windchill 46 °F
Dew Point 42 °F
Humidity 85%
Rainfall 0.00 in
Snow Depth Not available.
UV 0 out of 12
Pollen Not available.
Air Quality Not available.
Flu Activity Not available.
METAR CYQM 250800Z 18008KT 15SM FEW090 FEW260 07/06 A3004 RMK AC1CI1 SLP173

More Conditions Fewer Conditions

10-Day Weather Forecast

Almanac

Astronomy

May. 25, 2015 Rise Set
Actual Time
Civil Twilight
Nautical Twilight
Astronomical Twilight
Moon
Length of Visible Light
Length of Day
Tomorrow will be .
, % of the Moon is Illuminated

Today's Extremes

Country Highs Country Lows

Community

WunderPhotos

Upload Photos

1,823,959 photos uploaded!

WunderBlogs® & News

Nearby

Air Quality

  Air Quality AQ Index Pollutant
Not available.

Snow Depth

Station Depth Elevation

Earthquake Activity

City Distance Mag. Time & Date
Minimum magnitude displayed is 2.5.

Coastal Water Temperatures

Place Temperature

Stations

Nearby Weather Stations

Station Location Temp. Windchill Dew Point Humidity Wind Precip. Elev Updated Type